Time;durP1;ratioP1;P1;durP2;ratioP2;P2;SDS_P1;SDS_P2;PMS_P1;PMS_P2;Temp;Humidity;BMP_temperature;BMP_pressure;BME280_temperature;BME280_humidity;BME280_pressure;Samples;Min_cycle;Max_cycle;Signal;HPM_P1;HPM_P2
2021/12/19 00:10:21;;;;;;;;;;;1.70;99.90;;;;;;5063730;28;19923;-71
2021/12/19 00:12:50;;;;;;;;;;;1.80;99.90;;;;;;5058370;28;19921;-70
2021/12/19 00:15:16;;;;;;;;;;;1.80;99.90;;;;;;5043888;28;19992;-71
2021/12/19 00:17:43;;;;;;;;;;;1.90;99.90;;;;;;5048202;28;19928;-71
2021/12/19 00:20:10;;;;;;;;;;;1.90;99.90;;;;;;5044406;28;19921;-71
2021/12/19 00:22:37;;;;;;;;;;;1.90;99.90;;;;;;5044024;28;19928;-70
2021/12/19 00:25:04;;;;;;;;;;;1.90;99.90;;;;;;5043605;28;19931;-70
2021/12/19 00:27:31;;;;;;;;;;;1.90;99.90;;;;;;5045352;28;19944;-71
2021/12/19 00:29:59;;;;;;;;;;;1.90;99.90;;;;;;5064210;28;19928;-71
2021/12/19 00:32:25;;;;;;;;;;;1.90;99.90;;;;;;5063810;28;19921;-71
2021/12/19 00:34:52;;;;;;;;;;;1.90;99.90;;;;;;5063024;28;19996;-71
2021/12/19 00:37:19;;;;;;;;;;;1.90;99.90;;;;;;5061486;28;19921;-72
2021/12/19 00:39:46;;;;;;;;;;;1.80;99.90;;;;;;5044531;28;19927;-71
2021/12/19 00:42:14;;;;;;;;;;;1.90;99.90;;;;;;5044198;28;19921;-71
2021/12/19 00:44:42;;;;;;;;;;;1.90;99.90;;;;;;5047249;28;19959;-72
2021/12/19 00:47:10;;;;;;;;;;;1.90;99.90;;;;;;5063641;28;19921;-73
2021/12/19 00:49:37;;;;;;;;;;;1.90;99.90;;;;;;5063253;28;19920;-71
2021/12/19 00:52:03;;;;;;;;;;;1.90;99.90;;;;;;5063501;28;20101;-71
2021/12/19 00:54:30;;;;;;;;;;;1.90;99.90;;;;;;5056992;28;20196;-70
2021/12/19 00:56:56;;;;;;;;;;;1.90;99.90;;;;;;5044104;28;20110;-71
2021/12/19 00:59:23;;;;;;;;;;;1.90;99.90;;;;;;5063833;28;19920;-72
2021/12/19 01:01:50;;;;;;;;;;;1.80;99.90;;;;;;5063521;28;19921;-71
2021/12/19 01:04:19;;;;;;;;;;;1.80;99.90;;;;;;5062595;28;19921;-70
2021/12/19 01:06:46;;;;;;;;;;;1.80;99.90;;;;;;5065369;28;19920;-72
2021/12/19 01:09:13;;;;;;;;;;;1.80;99.90;;;;;;5083791;28;19921;-71
2021/12/19 01:11:40;;;;;;;;;;;1.80;99.90;;;;;;5083682;28;20112;-71
2021/12/19 01:14:07;;;;;;;;;;;1.80;99.90;;;;;;5082898;28;19921;-71
2021/12/19 01:16:34;;;;;;;;;;;1.80;99.90;;;;;;5083398;28;19927;-71
2021/12/19 01:19:01;;;;;;;;;;;1.80;99.90;;;;;;5049234;28;20120;-72
2021/12/19 01:21:29;;;;;;;;;;;1.70;99.90;;;;;;5043753;28;19927;-72
2021/12/19 01:23:55;;;;;;;;;;;1.80;99.90;;;;;;5042925;28;19948;-71
2021/12/19 01:26:22;;;;;;;;;;;1.80;99.90;;;;;;5043403;28;19927;-71
2021/12/19 01:28:48;;;;;;;;;;;1.80;99.90;;;;;;5042961;28;19921;-71
2021/12/19 01:31:15;;;;;;;;;;;1.70;99.90;;;;;;5042507;28;20120;-70
2021/12/19 01:33:42;;;;;;;;;;;1.70;99.90;;;;;;5042592;28;20101;-75
2021/12/19 01:36:08;;;;;;;;;;;1.70;99.90;;;;;;5046303;28;19921;-71
2021/12/19 01:38:36;;;;;;;;;;;1.80;99.90;;;;;;5042923;28;20120;-71
2021/12/19 01:41:03;;;;;;;;;;;1.80;99.90;;;;;;5042522;28;19928;-71
2021/12/19 01:43:31;;;;;;;;;;;1.80;99.90;;;;;;5042481;28;19928;-71
2021/12/19 01:45:58;;;;;;;;;;;1.80;99.90;;;;;;5058293;28;19943;-71
2021/12/19 01:48:25;;;;;;;;;;;1.80;99.90;;;;;;5062626;28;19922;-71
2021/12/19 01:50:52;;;;;;;;;;;1.80;99.90;;;;;;5061590;28;20200;-71
2021/12/19 01:53:19;;;;;;;;;;;1.70;99.90;;;;;;5062401;28;19921;-72
2021/12/19 01:55:48;;;;;;;;;;;1.70;99.90;;;;;;5062499;28;19921;-72
2021/12/19 01:58:14;;;;;;;;;;;1.80;99.90;;;;;;5049970;28;19936;-72
2021/12/19 02:00:42;;;;;;;;;;;1.70;99.90;;;;;;5046910;28;19927;-71
2021/12/19 02:03:10;;;;;;;;;;;1.70;99.90;;;;;;5046855;28;19928;-72
2021/12/19 02:05:37;;;;;;;;;;;1.70;99.90;;;;;;5045979;28;19929;-71
2021/12/19 02:08:04;;;;;;;;;;;1.70;99.90;;;;;;5062949;28;19921;-71
2021/12/19 02:10:32;;;;;;;;;;;1.80;99.90;;;;;;5066025;28;19920;-72
2021/12/19 02:13:01;;;;;;;;;;;1.80;99.90;;;;;;5065576;28;19996;-71
2021/12/19 02:15:28;;;;;;;;;;;1.90;99.90;;;;;;5054980;28;19921;-71
2021/12/19 02:17:57;;;;;;;;;;;1.80;99.90;;;;;;5045824;28;19920;-74
2021/12/19 02:20:26;;;;;;;;;;;1.90;99.90;;;;;;5045393;28;19928;-71
2021/12/19 02:22:53;;;;;;;;;;;1.90;99.90;;;;;;5045609;28;19921;-71
2021/12/19 02:25:19;;;;;;;;;;;1.90;99.90;;;;;;5053517;28;19921;-72
2021/12/19 02:27:46;;;;;;;;;;;1.90;99.90;;;;;;5057985;28;19927;-71
2021/12/19 02:30:13;;;;;;;;;;;1.90;99.90;;;;;;5046161;28;19928;-71
2021/12/19 02:32:40;;;;;;;;;;;1.90;99.90;;;;;;5046338;28;19921;-72
2021/12/19 02:35:10;;;;;;;;;;;1.80;99.90;;;;;;5045616;28;19921;-71
2021/12/19 02:38:15;;;;;;;;;;;1.80;99.90;;;;;;5045342;28;20156;-71
2021/12/19 02:48:51;;;;;;;;;;;1.80;99.90;;;;;;5060968;28;19924;-70
2021/12/19 02:51:17;;;;;;;;;;;1.80;99.90;;;;;;5065950;28;19956;-71
2021/12/19 02:53:46;;;;;;;;;;;1.70;99.90;;;;;;5065357;28;19928;-72
2021/12/19 02:56:13;;;;;;;;;;;1.70;99.90;;;;;;5065534;28;19921;-71
2021/12/19 02:58:41;;;;;;;;;;;1.70;99.90;;;;;;5064905;28;19921;-71
2021/12/19 03:01:09;;;;;;;;;;;1.70;99.90;;;;;;5065168;28;20127;-71
2021/12/19 03:03:36;;;;;;;;;;;1.60;99.90;;;;;;5064787;28;19932;-71
2021/12/19 03:06:05;;;;;;;;;;;1.70;99.90;;;;;;5066104;22;19932;-73
2021/12/19 03:08:31;;;;;;;;;;;1.70;99.90;;;;;;5101125;28;19920;-73
2021/12/19 03:19:08;;;;;;;;;;;1.70;99.90;;;;;;5101432;28;19923;-73
2021/12/19 03:21:34;;;;;;;;;;;1.70;99.90;;;;;;5105838;28;20106;-73
2021/12/19 03:24:01;;;;;;;;;;;1.70;99.90;;;;;;5105565;28;19943;-73
2021/12/19 03:26:29;;;;;;;;;;;1.70;99.90;;;;;;5105432;28;19920;-73
2021/12/19 03:28:55;;;;;;;;;;;1.70;99.90;;;;;;5104452;28;19920;-73
2021/12/19 03:31:22;;;;;;;;;;;1.80;99.90;;;;;;5105670;28;19991;-73
2021/12/19 03:33:48;;;;;;;;;;;1.80;99.90;;;;;;5105019;28;19926;-73
2021/12/19 03:36:15;;;;;;;;;;;1.80;99.90;;;;;;5105140;28;19920;-73
2021/12/19 03:38:44;;;;;;;;;;;1.80;99.90;;;;;;5104285;28;19942;-73
2021/12/19 03:41:17;;;;;;;;;;;1.80;99.90;;;;;;5105048;28;19920;-73
2021/12/19 03:43:45;;;;;;;;;;;1.80;99.90;;;;;;5105125;28;19920;-73
2021/12/19 03:46:11;;;;;;;;;;;1.90;99.90;;;;;;5104917;28;19923;-73
2021/12/19 03:48:38;;;;;;;;;;;1.90;99.90;;;;;;5103873;28;19920;-73
2021/12/19 03:51:05;;;;;;;;;;;1.90;99.90;;;;;;5105100;28;19926;-73
2021/12/19 03:53:31;;;;;;;;;;;1.90;99.90;;;;;;5104778;28;19920;-73
2021/12/19 03:55:58;;;;;;;;;;;1.90;99.90;;;;;;5104612;28;19927;-74
2021/12/19 03:58:25;;;;;;;;;;;1.90;99.90;;;;;;5103507;28;19927;-73
2021/12/19 04:00:53;;;;;;;;;;;1.90;99.90;;;;;;5105046;28;19955;-73
2021/12/19 04:03:21;;;;;;;;;;;1.90;99.90;;;;;;5103803;28;20279;-73
2021/12/19 04:05:49;;;;;;;;;;;1.90;99.90;;;;;;5104575;28;19926;-74
2021/12/19 04:08:16;;;;;;;;;;;1.90;99.90;;;;;;5103743;28;20259;-73
2021/12/19 04:10:43;;;;;;;;;;;1.90;99.90;;;;;;5104306;28;20134;-73
2021/12/19 04:13:09;;;;;;;;;;;1.90;99.90;;;;;;5103860;28;20146;-74
2021/12/19 04:15:36;;;;;;;;;;;1.90;99.90;;;;;;5103180;28;19920;-73
2021/12/19 04:18:04;;;;;;;;;;;1.90;99.90;;;;;;5103240;28;20115;-73
2021/12/19 04:20:31;;;;;;;;;;;1.90;99.90;;;;;;5102353;28;20284;-73
2021/12/19 04:22:58;;;;;;;;;;;1.90;99.90;;;;;;5103165;28;19920;-73
2021/12/19 04:25:24;;;;;;;;;;;2.00;99.90;;;;;;5103464;28;20104;-73
2021/12/19 04:27:51;;;;;;;;;;;2.10;99.90;;;;;;5103507;28;19983;-74
2021/12/19 04:30:19;;;;;;;;;;;2.00;99.90;;;;;;5103447;28;19927;-74
2021/12/19 04:32:55;;;;;;;;;;;2.00;99.90;;;;;;5104377;28;19927;-73
2021/12/19 04:35:23;;;;;;;;;;;2.00;99.90;;;;;;5104346;28;19920;-73
2021/12/19 04:38:23;;;;;;;;;;;2.00;99.90;;;;;;5102950;28;19927;-73
2021/12/19 04:40:58;;;;;;;;;;;2.00;99.90;;;;;;5104083;28;20249;-73
2021/12/19 04:52:03;;;;;;;;;;;2.00;99.90;;;;;;5103063;28;20219;-73
2021/12/19 04:54:47;;;;;;;;;;;2.00;99.90;;;;;;5103678;28;20212;-73
2021/12/19 04:57:27;;;;;;;;;;;2.00;99.90;;;;;;5103257;28;20212;-73
2021/12/19 04:59:57;;;;;;;;;;;2.00;99.90;;;;;;5103284;28;19920;-73
2021/12/19 05:02:39;;;;;;;;;;;2.00;99.90;;;;;;5102834;28;20233;-73
2021/12/19 05:05:25;;;;;;;;;;;2.10;99.90;;;;;;5083726;28;19956;-72
2021/12/19 05:16:06;;;;;;;;;;;2.10;99.90;;;;;;5103595;28;20002;-72
2021/12/19 05:18:36;;;;;;;;;;;2.10;99.90;;;;;;5102571;28;19920;-75
2021/12/19 05:21:07;;;;;;;;;;;2.20;99.90;;;;;;5104049;28;19920;-72
2021/12/19 05:23:51;;;;;;;;;;;2.20;99.90;;;;;;5103503;28;19920;-73
2021/12/19 05:26:17;;;;;;;;;;;2.10;99.90;;;;;;5103515;28;19926;-73
2021/12/19 05:28:44;;;;;;;;;;;2.20;99.90;;;;;;5103349;28;19946;-73
2021/12/19 05:31:10;;;;;;;;;;;2.10;99.90;;;;;;5104463;28;19951;-73
2021/12/19 05:33:37;;;;;;;;;;;2.20;99.90;;;;;;5107146;28;19924;-75
2021/12/19 05:47:10;;;;;;;;;;;2.10;99.90;;;;;;5106251;28;19923;-75
2021/12/19 05:49:36;;;;;;;;;;;2.10;99.90;;;;;;5106056;28;19920;-75
2021/12/19 05:52:03;;;;;;;;;;;2.10;99.90;;;;;;5107511;28;19920;-73
2021/12/19 05:54:31;;;;;;;;;;;2.10;99.90;;;;;;5107123;28;19927;-75
2021/12/19 05:56:58;;;;;;;;;;;2.10;99.90;;;;;;5107138;28;19920;-75
2021/12/19 05:59:24;;;;;;;;;;;2.10;99.90;;;;;;5105808;28;19919;-75
2021/12/19 06:01:51;;;;;;;;;;;2.10;99.90;;;;;;5106949;28;20203;-74
2021/12/19 06:04:17;;;;;;;;;;;2.10;99.90;;;;;;5107044;28;20092;-74
2021/12/19 06:06:46;;;;;;;;;;;2.10;99.90;;;;;;5106557;28;19920;-75
2021/12/19 06:09:12;;;;;;;;;;;2.10;99.90;;;;;;5106341;28;19926;-75
2021/12/19 06:11:40;;;;;;;;;;;2.20;99.90;;;;;;5106024;28;19920;-75
2021/12/19 06:14:07;;;;;;;;;;;2.20;99.90;;;;;;5106762;28;19920;-75
2021/12/19 06:16:33;;;;;;;;;;;2.20;99.90;;;;;;5106278;28;19920;-75
2021/12/19 06:19:00;;;;;;;;;;;2.20;99.90;;;;;;5105653;28;19927;-75
2021/12/19 06:21:26;;;;;;;;;;;2.20;99.90;;;;;;5110307;28;19926;-74
2021/12/19 06:23:53;;;;;;;;;;;2.20;99.90;;;;;;5110857;28;19920;-74
2021/12/19 06:26:20;;;;;;;;;;;2.20;99.90;;;;;;5110683;28;19920;-75
2021/12/19 06:28:48;;;;;;;;;;;2.20;99.90;;;;;;5109922;28;20104;-75
2021/12/19 06:31:16;;;;;;;;;;;2.30;99.90;;;;;;5106682;28;19920;-76
2021/12/19 06:33:43;;;;;;;;;;;2.30;99.90;;;;;;5106300;28;19920;-75
2021/12/19 06:36:09;;;;;;;;;;;2.30;99.90;;;;;;5106135;28;19920;-75
2021/12/19 06:38:36;;;;;;;;;;;2.30;99.90;;;;;;5105525;28;19920;-75
2021/12/19 06:41:03;;;;;;;;;;;2.30;99.90;;;;;;5106495;28;19920;-74
2021/12/19 06:43:30;;;;;;;;;;;2.30;99.90;;;;;;5106106;28;19924;-73
2021/12/19 06:45:58;;;;;;;;;;;2.30;99.90;;;;;;5105959;28;20208;-72
2021/12/19 06:48:25;;;;;;;;;;;2.30;99.90;;;;;;5105149;28;19951;-75
2021/12/19 06:50:51;;;;;;;;;;;2.30;99.90;;;;;;5106093;28;20226;-75
2021/12/19 06:53:18;;;;;;;;;;;2.30;99.90;;;;;;5106256;28;19987;-74
2021/12/19 06:55:45;;;;;;;;;;;2.30;99.90;;;;;;5105621;28;19995;-75
2021/12/19 06:58:11;;;;;;;;;;;2.30;99.90;;;;;;5104725;28;20092;-74
2021/12/19 07:00:38;;;;;;;;;;;2.30;99.90;;;;;;5105884;28;20226;-75
2021/12/19 07:03:06;;;;;;;;;;;2.30;99.90;;;;;;5106047;28;19920;-74
2021/12/19 07:05:32;;;;;;;;;;;2.30;99.90;;;;;;5105833;28;19920;-75
2021/12/19 07:07:59;;;;;;;;;;;2.40;99.90;;;;;;5104068;28;19942;-75
2021/12/19 07:10:26;;;;;;;;;;;2.30;99.90;;;;;;5105910;28;19927;-74
2021/12/19 07:12:52;;;;;;;;;;;2.40;99.90;;;;;;5105756;28;20115;-75
2021/12/19 07:15:19;;;;;;;;;;;2.40;99.90;;;;;;5105616;28;19926;-75
2021/12/19 07:17:46;;;;;;;;;;;2.30;99.90;;;;;;5105106;28;19920;-75
2021/12/19 07:20:14;;;;;;;;;;;2.30;99.90;;;;;;5105193;28;19920;-75
2021/12/19 07:22:41;;;;;;;;;;;2.30;99.90;;;;;;5104695;28;19938;-73
2021/12/19 07:25:08;;;;;;;;;;;2.30;99.90;;;;;;5105247;28;19927;-75
2021/12/19 07:27:35;;;;;;;;;;;2.40;99.90;;;;;;5104513;28;19932;-75
2021/12/19 07:30:02;;;;;;;;;;;2.30;99.90;;;;;;5105099;28;19920;-73
2021/12/19 07:32:28;;;;;;;;;;;2.30;99.90;;;;;;5105234;28;19991;-74
2021/12/19 07:34:55;;;;;;;;;;;2.30;99.90;;;;;;5105186;28;20085;-74
2021/12/19 07:37:23;;;;;;;;;;;2.30;99.90;;;;;;5104789;28;19928;-75
2021/12/19 07:39:56;;;;;;;;;;;2.40;99.90;;;;;;5103939;28;19924;-75
2021/12/19 07:42:22;;;;;;;;;;;2.40;99.90;;;;;;5105420;28;19920;-74
2021/12/19 07:44:49;;;;;;;;;;;2.40;99.90;;;;;;5105001;28;19927;-74
2021/12/19 07:47:16;;;;;;;;;;;2.40;99.90;;;;;;5104721;28;19928;-75
2021/12/19 07:49:42;;;;;;;;;;;2.40;99.90;;;;;;5103808;28;19923;-75
2021/12/19 07:52:09;;;;;;;;;;;2.40;99.90;;;;;;5105171;28;20118;-75
2021/12/19 07:54:37;;;;;;;;;;;2.40;99.90;;;;;;5104061;28;19924;-75
2021/12/19 07:57:03;;;;;;;;;;;2.40;99.90;;;;;;5104649;28;19920;-75
2021/12/19 07:59:30;;;;;;;;;;;2.40;99.90;;;;;;5103472;28;19931;-73
2021/12/19 08:01:57;;;;;;;;;;;2.40;99.90;;;;;;5104495;28;20305;-73
2021/12/19 08:04:23;;;;;;;;;;;2.50;99.90;;;;;;5104684;28;19926;-72
2021/12/19 08:06:50;;;;;;;;;;;2.50;99.90;;;;;;5104282;28;19930;-73
2021/12/19 08:09:24;;;;;;;;;;;2.50;99.90;;;;;;5103922;28;20231;-71
2021/12/19 08:11:51;;;;;;;;;;;2.50;99.90;;;;;;5104110;28;19942;-73
2021/12/19 08:14:18;;;;;;;;;;;2.50;99.90;;;;;;5103320;28;20204;-73
2021/12/19 08:16:46;;;;;;;;;;;2.50;99.90;;;;;;5104478;28;19994;-75
2021/12/19 08:19:13;;;;;;;;;;;2.50;99.90;;;;;;5103224;28;19920;-73
2021/12/19 08:21:40;;;;;;;;;;;2.50;99.90;;;;;;5103612;28;20293;-73
2021/12/19 08:24:10;;;;;;;;;;;2.50;99.90;;;;;;5103697;28;20124;-73
2021/12/19 08:26:37;;;;;;;;;;;2.50;99.90;;;;;;5104323;28;20104;-73
2021/12/19 08:29:05;;;;;;;;;;;2.50;99.90;;;;;;5103425;28;19926;-73
2021/12/19 08:31:32;;;;;;;;;;;2.50;99.90;;;;;;5104503;28;19927;-72
2021/12/19 08:33:59;;;;;;;;;;;2.50;99.90;;;;;;5103833;28;20305;-73
2021/12/19 08:36:26;;;;;;;;;;;2.50;99.90;;;;;;5104099;28;19935;-72
2021/12/19 08:38:52;;;;;;;;;;;2.50;99.90;;;;;;5103754;28;19927;-73
2021/12/19 08:41:19;;;;;;;;;;;2.50;99.90;;;;;;5103676;28;19921;-72
2021/12/19 08:43:46;;;;;;;;;;;2.50;99.90;;;;;;5103336;28;19950;-73
2021/12/19 08:46:14;;;;;;;;;;;2.60;99.90;;;;;;5103145;28;19924;-73
2021/12/19 08:48:41;;;;;;;;;;;2.50;99.90;;;;;;5102767;28;19943;-72
2021/12/19 08:51:07;;;;;;;;;;;2.50;99.90;;;;;;5104008;28;19920;-73
2021/12/19 08:53:34;;;;;;;;;;;2.50;99.90;;;;;;5104036;28;19927;-72
2021/12/19 08:56:01;;;;;;;;;;;2.50;99.90;;;;;;5104154;28;19920;-73
2021/12/19 08:58:29;;;;;;;;;;;2.50;99.90;;;;;;5102887;28;19920;-73
2021/12/19 09:00:58;;;;;;;;;;;2.50;99.90;;;;;;5103932;28;20245;-73
2021/12/19 09:03:25;;;;;;;;;;;2.40;99.90;;;;;;5103879;28;20153;-72
2021/12/19 09:05:52;;;;;;;;;;;2.40;99.90;;;;;;5106499;28;19924;-73
2021/12/19 09:08:19;;;;;;;;;;;2.50;99.90;;;;;;5107827;28;19920;-73
2021/12/19 09:10:45;;;;;;;;;;;2.40;99.90;;;;;;5106834;28;19924;-73
2021/12/19 09:13:12;;;;;;;;;;;2.40;99.90;;;;;;5107926;28;20233;-72
2021/12/19 09:15:38;;;;;;;;;;;2.50;99.90;;;;;;5107995;28;19920;-72
2021/12/19 09:18:05;;;;;;;;;;;2.40;99.90;;;;;;5106044;28;19920;-72
2021/12/19 09:23:36;;;;;;;;;;;2.40;99.90;;;;;;5090882;28;19975;-72
2021/12/19 09:26:05;;;;;;;;;;;2.40;99.90;;;;;;5087545;28;19961;-73
2021/12/19 09:28:31;;;;;;;;;;;2.40;99.90;;;;;;5091873;28;20115;-75
2021/12/19 09:30:58;;;;;;;;;;;2.40;99.90;;;;;;5107531;28;20204;-73
2021/12/19 09:33:25;;;;;;;;;;;2.40;99.90;;;;;;5107460;28;19919;-73
2021/12/19 09:35:51;;;;;;;;;;;2.40;99.90;;;;;;5106623;28;19987;-74
2021/12/19 09:38:20;;;;;;;;;;;2.40;99.90;;;;;;5092554;28;19936;-72
2021/12/19 09:40:48;;;;;;;;;;;2.30;99.90;;;;;;5107465;28;20207;-72
2021/12/19 09:43:41;;;;;;;;;;;2.40;99.90;;;;;;5107652;28;19927;-73
2021/12/19 09:46:09;;;;;;;;;;;2.40;99.90;;;;;;5107362;28;19920;-73
2021/12/19 09:48:36;;;;;;;;;;;2.40;99.90;;;;;;5106463;28;19987;-74
2021/12/19 09:51:02;;;;;;;;;;;2.40;99.90;;;;;;5107508;28;19920;-74
2021/12/19 09:53:29;;;;;;;;;;;2.40;99.90;;;;;;5107133;28;19927;-74
2021/12/19 09:55:57;;;;;;;;;;;2.40;99.90;;;;;;5107610;28;20211;-74
2021/12/19 09:58:23;;;;;;;;;;;2.30;99.90;;;;;;5106191;28;19920;-74
2021/12/19 10:00:53;;;;;;;;;;;2.40;99.90;;;;;;5107263;28;19920;-74
2021/12/19 10:03:19;;;;;;;;;;;2.40;99.90;;;;;;5107282;28;19979;-74
2021/12/19 10:05:48;;;;;;;;;;;2.30;99.90;;;;;;5105864;28;19920;-75
2021/12/19 10:08:23;;;;;;;;;;;2.30;99.90;;;;;;5087772;28;20105;-75
2021/12/19 10:10:56;;;;;;;;;;;2.30;99.90;;;;;;5086203;28;19926;-75
2021/12/19 10:13:32;;;;;;;;;;;2.30;99.90;;;;;;5100352;28;19920;-74
2021/12/19 10:15:59;;;;;;;;;;;2.30;99.90;;;;;;5107231;28;19926;-73
2021/12/19 10:18:25;;;;;;;;;;;2.30;99.90;;;;;;5105692;28;19924;-74
2021/12/19 10:20:53;;;;;;;;;;;2.30;99.90;;;;;;5106813;28;19920;-75
2021/12/19 10:23:21;;;;;;;;;;;2.30;99.90;;;;;;5106109;28;20208;-74
2021/12/19 10:26:00;;;;;;;;;;;2.30;99.90;;;;;;5106491;28;19927;-75
2021/12/19 10:28:28;;;;;;;;;;;2.30;99.90;;;;;;5104965;28;20263;-75
2021/12/19 10:30:58;;;;;;;;;;;2.30;99.90;;;;;;5106423;28;19927;-74
2021/12/19 10:33:27;;;;;;;;;;;2.30;99.90;;;;;;5106595;28;19920;-75
2021/12/19 10:35:54;;;;;;;;;;;2.30;99.90;;;;;;5105882;28;19926;-74
2021/12/19 10:38:22;;;;;;;;;;;2.30;99.90;;;;;;5105250;28;20215;-74
2021/12/19 10:40:50;;;;;;;;;;;2.20;99.90;;;;;;5106483;28;19920;-75
2021/12/19 10:43:17;;;;;;;;;;;2.20;99.90;;;;;;5105688;28;20151;-75
2021/12/19 10:45:45;;;;;;;;;;;2.20;99.90;;;;;;5106148;28;19974;-74
2021/12/19 10:48:17;;;;;;;;;;;3.10;99.90;;;;;;5105428;28;19983;-74
2021/12/19 10:50:45;;;;;;;;;;;2.20;99.90;;;;;;5106325;28;19920;-74
2021/12/19 10:53:13;;;;;;;;;;;2.30;99.90;;;;;;5106329;28;19920;-74
2021/12/19 10:55:41;;;;;;;;;;;2.20;99.90;;;;;;5105957;28;19926;-74
2021/12/19 10:58:19;;;;;;;;;;;2.30;99.90;;;;;;5104676;28;19920;-74
2021/12/19 11:00:54;;;;;;;;;;;2.30;99.90;;;;;;5106214;28;19969;-72
2021/12/19 11:03:34;;;;;;;;;;;2.30;99.90;;;;;;5106255;28;19955;-74
2021/12/19 11:06:01;;;;;;;;;;;2.30;99.90;;;;;;5105860;28;19926;-75
2021/12/19 11:08:30;;;;;;;;;;;2.30;99.90;;;;;;5104639;28;20119;-74
2021/12/19 11:10:57;;;;;;;;;;;2.40;99.90;;;;;;5106004;28;19920;-74
2021/12/19 11:13:23;;;;;;;;;;;2.40;99.90;;;;;;5106003;28;19951;-74
2021/12/19 11:15:50;;;;;;;;;;;2.40;99.90;;;;;;5104691;28;19920;-74
2021/12/19 11:18:17;;;;;;;;;;;2.30;99.90;;;;;;5105479;28;19920;-74
2021/12/19 11:20:45;;;;;;;;;;;2.30;99.90;;;;;;5105446;28;19931;-74
2021/12/19 11:23:11;;;;;;;;;;;2.30;99.90;;;;;;5105403;28;19920;-74
2021/12/19 11:25:38;;;;;;;;;;;2.30;99.90;;;;;;5104987;28;19920;-74
2021/12/19 11:28:05;;;;;;;;;;;2.30;99.90;;;;;;5104889;28;19920;-74
2021/12/19 11:30:32;;;;;;;;;;;2.30;99.90;;;;;;5105126;28;19991;-74
2021/12/19 11:33:12;;;;;;;;;;;2.40;99.90;;;;;;5094433;28;20226;-75
2021/12/19 11:35:40;;;;;;;;;;;2.40;99.90;;;;;;5084968;28;19943;-75
2021/12/19 11:38:10;;;;;;;;;;;2.40;99.90;;;;;;5084971;28;19927;-74
2021/12/19 11:40:37;;;;;;;;;;;2.40;99.90;;;;;;5085094;28;19921;-74
2021/12/19 11:43:05;;;;;;;;;;;2.30;99.90;;;;;;5084868;28;19920;-74
2021/12/19 11:45:35;;;;;;;;;;;2.30;99.90;;;;;;5084696;28;19966;-74
2021/12/19 11:48:07;;;;;;;;;;;2.30;99.90;;;;;;5084908;28;19962;-75
2021/12/19 11:50:36;;;;;;;;;;;2.30;99.90;;;;;;5084903;28;19963;-74
2021/12/19 11:53:17;;;;;;;;;;;2.20;99.90;;;;;;5084625;28;19927;-74
2021/12/19 11:55:47;;;;;;;;;;;2.30;99.90;;;;;;5083959;28;19921;-75
2021/12/19 11:58:14;;;;;;;;;;;2.30;99.90;;;;;;5084812;28;19921;-72
2021/12/19 12:00:43;;;;;;;;;;;2.30;99.90;;;;;;5084680;28;19955;-74
2021/12/19 12:03:24;;;;;;;;;;;2.30;99.90;;;;;;5084502;28;19927;-74
2021/12/19 12:05:52;;;;;;;;;;;2.30;99.90;;;;;;5081538;28;19926;-74
2021/12/19 12:08:19;;;;;;;;;;;2.30;99.90;;;;;;5102959;28;19926;-74
2021/12/19 12:11:04;;;;;;;;;;;2.30;99.90;;;;;;5104670;28;19920;-74
2021/12/19 12:13:34;;;;;;;;;;;2.30;99.90;;;;;;5104692;28;19927;-74
2021/12/19 12:16:24;;;;;;;;;;;2.30;99.90;;;;;;5104396;28;19962;-75
2021/12/19 12:18:55;;;;;;;;;;;2.30;99.90;;;;;;5103232;28;20223;-74
2021/12/19 12:21:27;;;;;;;;;;;2.30;99.90;;;;;;5104382;28;19920;-74
2021/12/19 12:23:56;;;;;;;;;;;2.30;99.90;;;;;;5104432;28;19920;-75
2021/12/19 12:26:25;;;;;;;;;;;2.20;99.90;;;;;;5104620;28;19961;-75
2021/12/19 12:28:53;;;;;;;;;;;2.30;99.90;;;;;;5103462;28;19920;-74
2021/12/19 12:31:20;;;;;;;;;;;2.30;99.90;;;;;;5104472;28;19927;-74
2021/12/19 12:33:47;;;;;;;;;;;2.30;99.90;;;;;;5103979;28;19926;-73
2021/12/19 12:36:15;;;;;;;;;;;2.30;99.90;;;;;;5104325;28;19920;-75
2021/12/19 12:38:45;;;;;;;;;;;2.30;99.90;;;;;;5103705;28;20211;-75
2021/12/19 12:41:26;;;;;;;;;;;2.30;99.90;;;;;;5103127;28;19920;-74
2021/12/19 12:43:54;;;;;;;;;;;2.30;99.90;;;;;;5106669;28;20101;-75
2021/12/19 12:46:22;;;;;;;;;;;2.30;99.90;;;;;;5104239;28;20124;-75
2021/12/19 12:48:52;;;;;;;;;;;2.30;99.90;;;;;;5103297;28;19926;-74
2021/12/19 12:51:25;;;;;;;;;;;2.20;99.90;;;;;;5103645;28;20312;-75
2021/12/19 12:53:53;;;;;;;;;;;2.30;99.90;;;;;;5104134;28;19920;-74
2021/12/19 12:56:22;;;;;;;;;;;2.30;99.90;;;;;;5105348;28;20122;-74
2021/12/19 12:58:50;;;;;;;;;;;2.30;99.90;;;;;;5109171;28;19959;-75
2021/12/19 13:01:19;;;;;;;;;;;2.30;99.90;;;;;;5112460;28;19951;-74
2021/12/19 13:03:59;;;;;;;;;;;2.30;99.90;;;;;;5109277;28;19990;-75
2021/12/19 13:06:39;;;;;;;;;;;2.30;99.90;;;;;;5101701;28;20085;-75
2021/12/19 13:09:22;;;;;;;;;;;2.30;99.90;;;;;;5084166;28;20240;-73
2021/12/19 13:11:50;;;;;;;;;;;2.30;99.90;;;;;;5084829;28;19920;-74
2021/12/19 13:14:19;;;;;;;;;;;2.30;99.90;;;;;;5083749;28;20139;-75
2021/12/19 13:16:48;;;;;;;;;;;2.40;99.90;;;;;;5084195;28;19924;-74
2021/12/19 13:19:33;;;;;;;;;;;2.40;99.90;;;;;;5082869;28;19920;-75
2021/12/19 13:22:00;;;;;;;;;;;2.40;99.90;;;;;;5083377;28;19928;-75
2021/12/19 13:24:26;;;;;;;;;;;2.40;99.90;;;;;;5082692;28;19920;-75
2021/12/19 13:27:03;;;;;;;;;;;2.30;99.90;;;;;;5082969;28;19920;-75
2021/12/19 13:29:30;;;;;;;;;;;2.30;99.90;;;;;;5082786;28;19932;-75
2021/12/19 13:32:12;;;;;;;;;;;2.30;99.90;;;;;;5082804;28;19927;-74
2021/12/19 13:34:40;;;;;;;;;;;2.30;99.90;;;;;;5082356;28;19928;-74
2021/12/19 13:37:07;;;;;;;;;;;2.30;99.90;;;;;;5082713;28;19920;-74
2021/12/19 13:39:33;;;;;;;;;;;2.30;99.90;;;;;;5082896;28;19924;-74
2021/12/19 13:42:06;;;;;;;;;;;2.30;99.90;;;;;;5082778;28;20116;-74
2021/12/19 13:44:32;;;;;;;;;;;2.30;99.90;;;;;;5082464;28;19927;-74
2021/12/19 13:46:59;;;;;;;;;;;2.40;99.90;;;;;;5082866;28;19920;-74
2021/12/19 13:49:26;;;;;;;;;;;2.30;99.90;;;;;;5082724;28;20238;-72
2021/12/19 13:51:54;;;;;;;;;;;2.30;99.90;;;;;;5083558;28;19951;-73
2021/12/19 13:54:27;;;;;;;;;;;2.40;99.90;;;;;;5091229;28;20212;-75
2021/12/19 13:56:54;;;;;;;;;;;2.40;99.90;;;;;;5106398;28;19927;-75
2021/12/19 13:59:22;;;;;;;;;;;2.50;99.90;;;;;;5106490;28;19926;-74
2021/12/19 14:01:49;;;;;;;;;;;2.50;99.90;;;;;;5106664;28;19920;-75
2021/12/19 14:04:17;;;;;;;;;;;2.50;99.90;;;;;;5106267;28;20203;-75
2021/12/19 14:06:44;;;;;;;;;;;2.50;99.90;;;;;;5106169;28;19920;-73
2021/12/19 14:09:13;;;;;;;;;;;2.50;99.90;;;;;;5106472;28;19927;-74
2021/12/19 14:11:42;;;;;;;;;;;2.50;99.90;;;;;;5106187;28;19926;-75
2021/12/19 14:14:11;;;;;;;;;;;2.50;99.90;;;;;;5106116;28;20204;-73
2021/12/19 14:16:41;;;;;;;;;;;2.60;99.90;;;;;;5106185;28;19920;-74
2021/12/19 14:19:19;;;;;;;;;;;2.60;99.90;;;;;;5106248;28;20234;-73
2021/12/19 14:21:45;;;;;;;;;;;2.50;99.90;;;;;;5106087;28;19924;-75
2021/12/19 14:24:18;;;;;;;;;;;2.50;99.90;;;;;;5105786;28;20123;-75
2021/12/19 14:26:46;;;;;;;;;;;2.60;99.90;;;;;;5106176;28;19926;-74
2021/12/19 14:29:17;;;;;;;;;;;2.50;99.90;;;;;;5106288;28;20104;-75
2021/12/19 14:31:47;;;;;;;;;;;2.60;99.90;;;;;;5105912;28;19920;-75
2021/12/19 14:34:18;;;;;;;;;;;2.60;99.90;;;;;;5105715;28;19920;-75
2021/12/19 14:36:45;;;;;;;;;;;2.60;99.90;;;;;;5106125;28;19928;-73
2021/12/19 14:39:15;;;;;;;;;;;2.70;99.90;;;;;;5105839;28;19920;-75
2021/12/19 14:41:43;;;;;;;;;;;2.70;99.90;;;;;;5105956;28;19920;-75
2021/12/19 14:44:17;;;;;;;;;;;2.70;99.90;;;;;;5105414;28;20130;-75
2021/12/19 14:46:44;;;;;;;;;;;2.70;99.90;;;;;;5105667;28;20237;-74
2021/12/19 14:49:11;;;;;;;;;;;2.70;99.90;;;;;;5106023;28;19920;-75
2021/12/19 14:51:38;;;;;;;;;;;2.70;99.90;;;;;;5105768;28;19965;-75
2021/12/19 14:54:04;;;;;;;;;;;2.70;99.90;;;;;;5105085;28;20219;-74
2021/12/19 14:56:31;;;;;;;;;;;2.70;99.90;;;;;;5105505;28;19920;-75
2021/12/19 14:58:59;;;;;;;;;;;2.70;99.90;;;;;;5105375;28;20100;-75
2021/12/19 15:01:32;;;;;;;;;;;2.60;99.90;;;;;;5105371;28;19926;-74
2021/12/19 15:03:59;;;;;;;;;;;2.60;99.90;;;;;;5104973;28;19988;-75
2021/12/19 15:06:26;;;;;;;;;;;2.60;99.90;;;;;;5105571;28;20156;-75
2021/12/19 15:08:54;;;;;;;;;;;2.60;99.90;;;;;;5105139;28;20257;-75
2021/12/19 15:11:21;;;;;;;;;;;2.60;99.90;;;;;;5105320;28;19927;-75
2021/12/19 15:13:47;;;;;;;;;;;2.60;99.90;;;;;;5104906;28;20526;-73
2021/12/19 15:16:15;;;;;;;;;;;2.60;99.90;;;;;;5105338;28;19920;-75
2021/12/19 15:18:44;;;;;;;;;;;2.60;99.90;;;;;;5105147;28;19920;-75
2021/12/19 15:21:14;;;;;;;;;;;2.60;99.90;;;;;;5102949;28;19959;-73
2021/12/19 15:23:42;;;;;;;;;;;2.60;99.90;;;;;;5091947;28;19920;-75
2021/12/19 15:26:12;;;;;;;;;;;2.70;99.90;;;;;;5085184;28;19927;-75
2021/12/19 15:28:39;;;;;;;;;;;2.60;99.90;;;;;;5096979;28;19971;-75
2021/12/19 15:31:18;;;;;;;;;;;2.60;99.90;;;;;;5102927;28;19920;-74
2021/12/19 15:33:45;;;;;;;;;;;2.70;99.90;;;;;;5105126;28;20201;-75
2021/12/19 15:36:12;;;;;;;;;;;2.70;99.90;;;;;;5105246;28;19947;-75